createdAt,value
2022-12-12T00:01:37.760Z,14.75
2022-12-12T00:03:11.147Z,14.20
2022-12-12T00:04:44.401Z,13.10
2022-12-12T00:06:18.050Z,14.23
2022-12-12T00:07:51.462Z,13.85
2022-12-12T00:09:24.654Z,11.40
2022-12-12T00:10:57.274Z,12.95
2022-12-12T00:12:30.680Z,12.43
2022-12-12T00:14:05.348Z,13.57
2022-12-12T00:15:38.600Z,13.07
2022-12-12T00:17:13.158Z,12.68
2022-12-12T00:18:46.653Z,13.70
2022-12-12T00:20:20.209Z,11.20
2022-12-12T00:21:53.327Z,8.93
2022-12-12T00:23:27.197Z,8.60
2022-12-12T00:25:00.679Z,10.02
2022-12-12T00:26:36.106Z,7.82
2022-12-12T00:28:09.310Z,7.70
2022-12-12T00:29:42.586Z,7.10
2022-12-12T00:31:16.546Z,15.95
2022-12-12T00:32:51.305Z,27.80
2022-12-12T00:34:24.479Z,32.25
2022-12-12T00:35:58.300Z,17.90
2022-12-12T00:37:31.683Z,22.45
2022-12-12T00:39:05.709Z,16.05
2022-12-12T00:40:38.949Z,16.65
2022-12-12T00:42:12.128Z,14.00
2022-12-12T00:43:45.709Z,9.23
2022-12-12T00:45:19.342Z,11.32
2022-12-12T00:46:52.779Z,9.10
2022-12-12T00:48:27.773Z,9.02
2022-12-12T00:50:01.209Z,7.43
2022-12-12T00:51:34.706Z,10.90
2022-12-12T00:53:07.919Z,9.60
2022-12-12T00:54:41.059Z,10.48
2022-12-12T00:56:16.718Z,6.97
2022-12-12T00:57:50.162Z,9.07
2022-12-12T00:59:23.342Z,8.73
2022-12-12T01:00:56.475Z,7.68
2022-12-12T01:02:29.914Z,7.70
2022-12-12T01:04:06.461Z,7.97
2022-12-12T01:05:39.749Z,4.57
2022-12-12T01:07:12.892Z,5.75
2022-12-12T01:08:46.474Z,5.90
2022-12-12T01:10:20.432Z,5.70
2022-12-12T01:11:53.590Z,6.53
2022-12-12T01:13:27.148Z,7.07
2022-12-12T01:15:00.579Z,6.03
2022-12-12T01:16:34.485Z,7.90
2022-12-12T01:18:08.333Z,7.55
2022-12-12T01:19:43.069Z,7.90
2022-12-12T01:21:18.446Z,5.30
2022-12-12T01:22:51.993Z,5.70
2022-12-12T01:24:25.302Z,6.85
2022-12-12T01:26:02.350Z,8.50
2022-12-12T01:27:35.645Z,9.18
2022-12-12T01:29:09.142Z,9.23
2022-12-12T01:30:42.329Z,9.82
2022-12-12T01:32:15.481Z,9.32
2022-12-12T01:33:48.828Z,10.60
2022-12-12T01:35:24.021Z,9.38
2022-12-12T01:36:57.257Z,12.75
2022-12-12T01:38:30.462Z,11.68
2022-12-12T01:40:06.113Z,9.40
2022-12-12T01:41:39.557Z,9.93
2022-12-12T01:43:12.766Z,11.18
2022-12-12T01:44:49.636Z,11.93
2022-12-12T01:46:44.490Z,8.90
2022-12-12T01:48:16.878Z,10.23
2022-12-12T01:49:54.945Z,9.68
2022-12-12T01:51:29.858Z,9.10
2022-12-12T01:53:03.349Z,11.23
2022-12-12T01:54:40.939Z,12.30
2022-12-12T01:56:17.156Z,9.70
2022-12-12T01:57:53.829Z,10.25
2022-12-12T01:59:28.338Z,10.82
2022-12-12T02:01:01.355Z,9.52
2022-12-12T02:02:34.671Z,12.55
2022-12-12T02:04:09.370Z,13.18
2022-12-12T02:05:47.176Z,15.00
2022-12-12T02:07:21.700Z,10.30
2022-12-12T02:08:58.442Z,13.38
2022-12-12T02:10:31.846Z,11.05
2022-12-12T02:12:06.987Z,14.38
2022-12-12T02:13:39.415Z,14.05
2022-12-12T02:15:13.751Z,10.82
2022-12-12T02:17:05.831Z,9.85
2022-12-12T02:18:46.026Z,11.98
2022-12-12T02:20:54.491Z,12.38
2022-12-12T02:22:43.472Z,27.88
2022-12-12T02:24:44.138Z,17.60
2022-12-12T02:26:47.429Z,15.32
2022-12-12T02:28:41.302Z,11.88
2022-12-12T02:30:24.601Z,12.15
2022-12-12T02:32:06.538Z,10.45
2022-12-12T02:33:43.777Z,9.55
2022-12-12T02:35:21.014Z,15.15
2022-12-12T02:37:04.037Z,11.20
2022-12-12T02:38:45.857Z,11.15
2022-12-12T02:40:24.134Z,11.05
2022-12-12T02:42:04.660Z,15.35
2022-12-12T02:43:46.398Z,11.50
2022-12-12T02:45:29.009Z,12.38
2022-12-12T02:47:09.807Z,11.50
2022-12-12T02:48:49.845Z,20.90
2022-12-12T02:50:26.283Z,17.23
2022-12-12T02:52:02.340Z,14.90
2022-12-12T02:53:36.065Z,11.75
2022-12-12T02:55:10.731Z,14.63
2022-12-12T02:56:48.102Z,15.10
2022-12-12T02:58:21.555Z,12.73
2022-12-12T02:59:58.652Z,11.43
2022-12-12T03:01:45.560Z,11.80
2022-12-12T03:03:55.452Z,11.68
2022-12-12T03:06:00.954Z,12.32
2022-12-12T03:07:50.681Z,15.88
2022-12-12T03:09:35.321Z,34.08
2022-12-12T03:11:11.388Z,11.50
2022-12-12T03:13:00.797Z,10.77
2022-12-12T03:14:48.554Z,25.13
2022-12-12T03:16:27.633Z,67.78
2022-12-12T03:18:12.456Z,10.77
2022-12-12T03:19:57.313Z,18.17
2022-12-12T03:21:39.556Z,11.88
2022-12-12T03:23:17.266Z,14.10
2022-12-12T03:24:56.849Z,18.98
2022-12-12T03:26:35.631Z,14.68
2022-12-12T03:28:14.597Z,12.82
2022-12-12T03:29:54.463Z,15.77
2022-12-12T03:31:32.549Z,16.88
2022-12-12T03:33:16.010Z,14.00
2022-12-12T03:34:56.913Z,18.13
2022-12-12T03:36:36.602Z,22.70
2022-12-12T03:38:13.923Z,28.58
2022-12-12T03:39:52.111Z,23.83
2022-12-12T03:41:30.580Z,18.27
2022-12-12T03:43:08.600Z,17.40
2022-12-12T03:44:48.011Z,16.80
2022-12-12T03:46:26.452Z,22.02
2022-12-12T03:48:06.258Z,23.40
2022-12-12T03:49:43.569Z,23.15
2022-12-12T03:51:24.843Z,21.05
2022-12-12T03:53:03.074Z,13.93
2022-12-12T03:54:43.711Z,15.95
2022-12-12T03:56:32.851Z,14.27
2022-12-12T03:58:11.209Z,13.68
2022-12-12T03:59:48.586Z,17.17
2022-12-12T04:01:26.348Z,25.75
2022-12-12T04:03:07.264Z,36.75
2022-12-12T04:04:48.524Z,40.05
2022-12-12T04:06:31.521Z,35.05
2022-12-12T04:08:09.844Z,42.45
2022-12-12T04:10:01.919Z,28.80
2022-12-12T04:11:58.995Z,61.70
2022-12-12T04:13:36.711Z,51.95
2022-12-12T04:15:26.874Z,53.38
2022-12-12T04:17:05.713Z,27.23
2022-12-12T04:18:44.274Z,23.60
2022-12-12T04:20:42.765Z,16.38
2022-12-12T04:22:42.823Z,21.27
2022-12-12T04:24:24.180Z,15.13
2022-12-12T04:26:29.092Z,15.25
2022-12-12T04:28:07.722Z,15.10
2022-12-12T04:29:47.876Z,12.25
2022-12-12T04:31:25.558Z,12.70
2022-12-12T04:33:06.957Z,14.20
2022-12-12T04:34:44.369Z,12.23
2022-12-12T04:36:21.839Z,10.82
2022-12-12T04:38:00.151Z,10.15
2022-12-12T04:39:36.498Z,12.93
2022-12-12T04:41:13.163Z,14.63
2022-12-12T04:42:52.821Z,9.60
2022-12-12T04:44:30.595Z,10.77
2022-12-12T04:46:09.224Z,12.35
2022-12-12T04:47:45.870Z,9.80
2022-12-12T04:49:23.469Z,15.95
2022-12-12T04:50:58.702Z,12.40
2022-12-12T04:52:34.715Z,12.50
2022-12-12T04:54:13.496Z,15.40
2022-12-12T04:55:52.739Z,11.68
2022-12-12T04:57:31.127Z,12.63
2022-12-12T04:59:05.256Z,12.55
2022-12-12T05:00:47.619Z,13.32
2022-12-12T05:02:29.791Z,12.68
2022-12-12T05:04:08.980Z,13.38
2022-12-12T05:05:47.866Z,13.32
2022-12-12T05:07:29.352Z,12.27
2022-12-12T05:09:02.851Z,14.57
2022-12-12T05:10:44.129Z,15.43
2022-12-12T05:12:17.612Z,13.15
2022-12-12T05:13:51.513Z,16.17
2022-12-12T05:15:26.245Z,15.35
2022-12-12T05:17:05.200Z,17.90
2022-12-12T05:18:38.458Z,16.80
2022-12-12T05:20:11.922Z,19.83
2022-12-12T05:21:45.124Z,17.00
2022-12-12T05:23:18.998Z,17.48
2022-12-12T05:24:52.135Z,16.92
2022-12-12T05:26:29.194Z,17.27
2022-12-12T05:28:02.319Z,17.00
2022-12-12T05:29:35.690Z,15.45
2022-12-12T05:31:08.934Z,17.83
2022-12-12T05:32:42.158Z,17.25
2022-12-12T05:34:15.349Z,18.75
2022-12-12T05:35:48.907Z,18.63
2022-12-12T05:37:22.132Z,19.52
2022-12-12T05:38:55.425Z,20.75
2022-12-12T05:40:28.938Z,18.48
2022-12-12T05:42:03.656Z,18.85
2022-12-12T05:43:37.251Z,18.80
2022-12-12T05:45:12.662Z,15.85
2022-12-12T05:46:45.988Z,21.40
2022-12-12T05:48:24.146Z,21.00
2022-12-12T05:49:57.744Z,29.58
2022-12-12T05:51:31.331Z,18.95
2022-12-12T05:53:04.590Z,26.90
2022-12-12T05:54:38.133Z,29.55
2022-12-12T05:56:12.676Z,21.40
2022-12-12T05:57:47.232Z,21.70
2022-12-12T05:59:20.399Z,21.00
2022-12-12T06:00:57.355Z,19.00
2022-12-12T06:02:34.788Z,21.52
2022-12-12T06:04:08.062Z,24.00
2022-12-12T06:05:41.254Z,22.73
2022-12-12T06:07:14.612Z,25.27
2022-12-12T06:08:47.762Z,26.05
2022-12-12T06:10:21.104Z,23.80
2022-12-12T06:11:55.346Z,29.58
2022-12-12T06:13:30.098Z,23.98
2022-12-12T06:15:03.266Z,28.35
2022-12-12T06:16:36.841Z,27.95
2022-12-12T06:18:12.263Z,33.35
2022-12-12T06:19:45.790Z,34.65
2022-12-12T06:21:19.315Z,44.70
2022-12-12T06:22:53.944Z,47.45
2022-12-12T06:24:27.234Z,36.17
2022-12-12T06:26:00.778Z,26.98
2022-12-12T06:27:33.963Z,29.25
2022-12-12T06:29:08.543Z,27.83
2022-12-12T06:30:41.812Z,26.15
2022-12-12T06:32:15.557Z,29.05
2022-12-12T06:33:48.728Z,25.98
2022-12-12T06:35:22.004Z,26.27
2022-12-12T06:36:55.312Z,25.70
2022-12-12T06:38:29.174Z,34.63
2022-12-12T06:40:02.394Z,21.30
2022-12-12T06:41:36.041Z,22.25
2022-12-12T06:43:09.238Z,27.27
2022-12-12T06:44:44.450Z,21.75
2022-12-12T06:46:20.040Z,20.02
2022-12-12T06:47:53.234Z,22.85
2022-12-12T06:49:26.384Z,22.60
2022-12-12T06:51:00.578Z,21.75
2022-12-12T06:52:33.944Z,21.48
2022-12-12T06:54:07.329Z,20.83
2022-12-12T06:55:43.663Z,27.58
2022-12-12T06:57:17.087Z,30.35
2022-12-12T06:58:50.616Z,38.03
2022-12-12T07:00:25.254Z,22.80
2022-12-12T07:01:58.779Z,17.08
2022-12-12T07:03:32.819Z,26.23
2022-12-12T07:05:08.037Z,23.23
2022-12-12T07:06:41.640Z,22.13
2022-12-12T07:08:15.060Z,24.63
2022-12-12T07:09:48.614Z,15.02
2022-12-12T07:11:23.769Z,14.80
2022-12-12T07:12:57.661Z,21.90
2022-12-12T07:14:30.924Z,19.42
2022-12-12T07:16:06.346Z,9.20
2022-12-12T07:17:39.805Z,8.23
2022-12-12T07:19:13.020Z,6.03
2022-12-12T07:20:47.320Z,13.63
2022-12-12T07:22:20.885Z,10.32
2022-12-12T07:23:54.109Z,14.68
2022-12-12T07:25:27.439Z,14.23
2022-12-12T07:27:00.597Z,11.60
2022-12-12T07:28:34.519Z,13.68
2022-12-12T07:30:08.645Z,12.38
2022-12-12T07:31:43.312Z,18.42
2022-12-12T07:33:18.261Z,11.32
2022-12-12T07:34:51.994Z,11.85
2022-12-12T07:36:25.143Z,13.77
2022-12-12T07:37:58.366Z,18.85
2022-12-12T07:39:31.983Z,11.55
2022-12-12T07:41:06.760Z,10.32
2022-12-12T07:42:40.141Z,8.98
2022-12-12T07:44:13.291Z,6.10
2022-12-12T07:45:46.586Z,7.05
2022-12-12T07:47:21.510Z,11.45
2022-12-12T07:48:55.231Z,13.52
2022-12-12T07:50:28.487Z,11.00
2022-12-12T07:52:01.723Z,13.32
2022-12-12T07:53:35.379Z,20.45
2022-12-12T07:55:09.238Z,22.23
2022-12-12T07:56:42.469Z,17.38
2022-12-12T07:58:15.570Z,8.85
2022-12-12T07:59:48.992Z,10.07
2022-12-12T08:01:24.224Z,8.48
2022-12-12T08:02:58.951Z,8.77
2022-12-12T08:04:32.182Z,8.32
2022-12-12T08:06:07.024Z,10.23
2022-12-12T08:07:40.208Z,9.00
2022-12-12T08:09:13.494Z,9.50
2022-12-12T08:10:46.701Z,10.60
2022-12-12T08:12:20.438Z,13.30
2022-12-12T08:13:54.357Z,11.23
2022-12-12T08:15:27.565Z,9.70
2022-12-12T08:17:00.850Z,12.88
2022-12-12T08:18:35.933Z,11.10
2022-12-12T08:20:10.327Z,12.10
2022-12-12T08:21:44.659Z,17.17
2022-12-12T08:23:17.881Z,17.48
2022-12-12T08:24:51.463Z,14.85
2022-12-12T08:26:25.970Z,14.77
2022-12-12T08:27:59.132Z,19.63
2022-12-12T08:29:32.322Z,13.65
2022-12-12T08:31:06.016Z,19.98
2022-12-12T08:32:39.162Z,10.95
2022-12-12T08:34:13.871Z,16.08
2022-12-12T08:35:47.354Z,12.18
2022-12-12T08:37:21.750Z,11.98
2022-12-12T08:38:55.090Z,12.32
2022-12-12T08:40:28.386Z,8.73
2022-12-12T08:42:01.592Z,11.07
2022-12-12T08:43:35.299Z,13.15
2022-12-12T08:45:09.140Z,32.78
2022-12-12T08:46:42.750Z,20.88
2022-12-12T08:48:15.960Z,13.32
2022-12-12T08:49:50.863Z,15.63
2022-12-12T08:51:24.211Z,14.80
2022-12-12T08:52:57.327Z,16.55
2022-12-12T08:54:30.534Z,12.43
2022-12-12T08:56:04.262Z,25.38
2022-12-12T08:57:37.509Z,27.23
2022-12-12T08:59:10.915Z,40.85
2022-12-12T09:00:44.232Z,44.20
2022-12-12T09:02:18.056Z,25.08
2022-12-12T09:03:52.677Z,24.45
2022-12-12T09:05:27.288Z,21.20
2022-12-12T09:07:04.892Z,25.33
2022-12-12T09:08:42.496Z,16.05
2022-12-12T09:10:15.724Z,45.67
2022-12-12T09:11:48.857Z,35.90
2022-12-12T09:13:22.069Z,27.27
2022-12-12T09:14:55.729Z,27.63
2022-12-12T09:16:30.145Z,16.05
2022-12-12T09:18:03.536Z,15.20
2022-12-12T09:19:36.888Z,13.38
2022-12-12T09:21:11.812Z,17.17
2022-12-12T09:22:45.186Z,15.95
2022-12-12T09:24:18.468Z,13.98
2022-12-12T09:25:52.324Z,15.48
2022-12-12T09:27:25.709Z,18.02
2022-12-12T09:28:58.954Z,7.45
2022-12-12T09:30:32.406Z,11.93
2022-12-12T10:24:11.783Z,15.63
2022-12-12T10:25:50.978Z,10.82
2022-12-12T10:27:25.443Z,14.40
2022-12-12T10:29:03.920Z,18.25
2022-12-12T10:30:53.547Z,27.77
2022-12-12T10:32:37.811Z,23.42
2022-12-12T10:34:26.330Z,20.83
2022-12-12T10:36:11.635Z,56.33
2022-12-12T10:37:53.991Z,26.55
2022-12-12T10:39:37.115Z,17.80
2022-12-12T10:41:19.200Z,11.27
2022-12-12T10:43:01.465Z,13.02
2022-12-12T10:45:06.029Z,28.10
2022-12-12T10:46:44.657Z,14.90
2022-12-12T10:48:17.944Z,16.52
2022-12-12T10:49:54.718Z,11.65
2022-12-12T10:51:32.088Z,17.40
2022-12-12T10:53:08.486Z,13.57
2022-12-12T10:54:47.958Z,10.85
2022-12-12T10:56:24.477Z,11.98
2022-12-12T10:58:03.824Z,15.32
2022-12-12T10:59:45.762Z,11.18
2022-12-12T11:01:38.461Z,16.75
2022-12-12T11:03:26.948Z,25.80
2022-12-12T11:05:17.389Z,11.68
2022-12-12T11:06:53.720Z,12.00
2022-12-12T11:08:29.937Z,16.50
2022-12-12T11:10:22.099Z,17.50
2022-12-12T11:12:00.979Z,24.40
2022-12-12T11:13:40.878Z,22.15
2022-12-12T11:15:18.609Z,16.27
2022-12-12T11:16:52.023Z,17.83
2022-12-12T11:18:26.458Z,11.15
2022-12-12T11:20:02.411Z,15.25
2022-12-12T11:21:37.464Z,20.98
2022-12-12T11:23:19.039Z,14.05
2022-12-12T11:24:53.458Z,17.73
2022-12-12T11:26:30.407Z,14.68
2022-12-12T11:28:06.872Z,12.93
2022-12-12T11:29:46.013Z,11.82
2022-12-12T11:31:24.454Z,10.75
2022-12-12T11:32:58.685Z,11.40
2022-12-12T11:34:35.035Z,11.57
2022-12-12T11:36:09.012Z,16.60
2022-12-12T11:37:51.321Z,17.10
2022-12-12T11:39:29.381Z,10.25
2022-12-12T11:41:05.550Z,19.25
2022-12-12T11:42:41.520Z,9.10
2022-12-12T11:44:25.748Z,10.95
2022-12-12T11:46:02.475Z,9.40
2022-12-12T11:47:42.185Z,9.98
2022-12-12T11:49:21.375Z,7.70
2022-12-12T11:50:54.544Z,12.48
2022-12-12T11:52:32.865Z,10.52
2022-12-12T11:54:13.242Z,10.20
2022-12-12T11:55:56.192Z,9.70
2022-12-12T11:57:49.864Z,14.30
2022-12-12T11:59:46.210Z,15.60
2022-12-12T12:01:28.469Z,22.27
2022-12-12T12:03:38.886Z,18.67
2022-12-12T12:05:25.114Z,21.27
2022-12-12T12:07:12.607Z,17.15
2022-12-12T12:09:00.546Z,14.15
2022-12-12T12:10:47.984Z,11.70
2022-12-12T12:12:28.334Z,23.00
2022-12-12T12:14:25.285Z,27.10
2022-12-12T12:16:09.679Z,30.58
2022-12-12T12:18:05.629Z,21.52
2022-12-12T12:19:47.333Z,18.38
2022-12-12T12:21:32.445Z,18.00
2022-12-12T12:23:21.498Z,17.33
2022-12-12T12:25:11.183Z,16.27
2022-12-12T12:26:54.700Z,15.05
2022-12-12T12:28:53.971Z,11.43
2022-12-12T12:30:34.885Z,32.20
2022-12-12T12:32:15.088Z,39.75
2022-12-12T12:34:03.744Z,28.85
2022-12-12T12:35:50.055Z,21.65
2022-12-12T12:37:36.151Z,18.42
2022-12-12T12:39:21.415Z,20.58
2022-12-12T12:41:16.369Z,22.67
2022-12-12T12:43:02.060Z,27.83
2022-12-12T12:44:47.785Z,30.85
2022-12-12T12:46:31.683Z,37.15
2022-12-12T12:48:11.329Z,27.13
2022-12-12T12:49:52.506Z,26.05
2022-12-12T12:51:30.849Z,23.98
2022-12-12T12:53:09.179Z,30.35
2022-12-12T12:54:46.869Z,25.25
2022-12-12T12:56:26.736Z,21.00
2022-12-12T12:58:04.430Z,28.85
2022-12-12T12:59:41.629Z,30.70
2022-12-12T13:01:18.951Z,38.17
2022-12-12T13:02:59.291Z,16.55
2022-12-12T13:04:37.963Z,18.33
2022-12-12T13:06:17.337Z,17.77
2022-12-12T13:07:58.300Z,19.30
2022-12-12T13:09:43.127Z,28.20
2022-12-12T13:11:22.697Z,23.92
2022-12-12T13:12:58.865Z,32.80
2022-12-12T13:14:41.017Z,27.02
2022-12-12T13:16:18.464Z,21.58
2022-12-12T13:18:01.311Z,14.55
2022-12-12T13:19:38.837Z,16.95
2022-12-12T13:21:21.552Z,27.08
2022-12-12T13:23:12.198Z,17.38
2022-12-12T13:24:56.308Z,74.15
2022-12-12T13:26:43.643Z,26.77
2022-12-12T13:28:19.836Z,23.35
2022-12-12T13:29:58.070Z,20.67
2022-12-12T13:32:09.181Z,23.63
2022-12-12T13:33:47.611Z,27.38
2022-12-12T13:35:29.023Z,28.48
2022-12-12T13:37:07.556Z,23.33
2022-12-12T13:38:42.406Z,18.08
2022-12-12T13:40:26.763Z,25.15
2022-12-12T13:42:02.580Z,39.53
2022-12-12T13:43:46.961Z,38.40
2022-12-12T13:45:46.142Z,23.05
2022-12-12T13:47:58.362Z,26.90
2022-12-12T13:49:48.983Z,28.70
2022-12-12T13:51:36.793Z,25.85
2022-12-12T13:53:20.417Z,23.52
2022-12-12T13:54:58.319Z,30.13
2022-12-12T13:56:35.773Z,21.00
2022-12-12T13:58:20.896Z,24.85
2022-12-12T14:00:21.965Z,25.65
2022-12-12T14:01:57.235Z,20.92
2022-12-12T14:03:32.395Z,44.58
2022-12-12T14:05:17.199Z,33.35
2022-12-12T14:07:01.684Z,32.15
2022-12-12T14:08:38.859Z,28.77
2022-12-12T14:10:21.469Z,24.67
2022-12-12T14:11:54.719Z,22.00
2022-12-12T14:13:44.983Z,29.73
2022-12-12T14:15:28.114Z,25.77
2022-12-12T14:17:02.901Z,23.55
2022-12-12T14:18:40.963Z,33.00
2022-12-12T14:20:27.727Z,32.88
2022-12-12T14:22:00.939Z,36.38
2022-12-12T14:23:36.890Z,36.70
2022-12-12T14:25:21.654Z,30.90
2022-12-12T14:26:55.078Z,30.98
2022-12-12T14:28:29.764Z,40.47
2022-12-12T14:30:03.340Z,33.50
2022-12-12T14:31:42.926Z,21.63
2022-12-12T14:33:58.541Z,36.17
2022-12-12T14:35:42.659Z,40.45
2022-12-12T14:37:47.008Z,35.13
2022-12-12T14:39:52.697Z,35.63
2022-12-12T14:41:35.877Z,25.00
2022-12-12T14:43:21.985Z,23.17
2022-12-12T14:44:56.467Z,26.95
2022-12-12T14:46:31.624Z,30.02
2022-12-12T14:48:22.627Z,25.00
2022-12-12T14:50:10.774Z,29.23
2022-12-12T14:51:46.763Z,17.98
2022-12-12T14:53:22.822Z,25.50
2022-12-12T14:54:56.051Z,28.58
2022-12-12T14:56:33.141Z,41.05
2022-12-12T14:58:06.503Z,23.88
2022-12-12T14:59:42.648Z,27.48
2022-12-12T15:01:20.836Z,26.85
2022-12-12T15:02:54.768Z,29.15
2022-12-12T15:04:32.667Z,25.20
2022-12-12T15:06:37.700Z,22.85
2022-12-12T15:08:21.002Z,31.13
2022-12-12T15:09:54.398Z,29.48
2022-12-12T15:11:31.823Z,29.33
2022-12-12T15:13:21.002Z,28.63
2022-12-12T15:14:57.127Z,37.58
2022-12-12T15:16:42.730Z,30.40
2022-12-12T15:18:22.323Z,41.55
2022-12-12T15:19:59.793Z,30.33
2022-12-12T15:21:34.262Z,33.42
2022-12-12T15:23:09.182Z,40.92
2022-12-12T15:24:44.391Z,27.08
2022-12-12T15:26:20.247Z,31.65
2022-12-12T15:27:56.810Z,24.95
2022-12-12T15:29:32.231Z,28.45
2022-12-12T15:31:07.267Z,27.38
2022-12-12T15:32:41.555Z,30.23
2022-12-12T15:34:37.112Z,26.75
2022-12-12T15:36:27.936Z,29.63
2022-12-12T15:38:03.804Z,30.75
2022-12-12T15:39:39.777Z,22.75
2022-12-12T15:41:16.180Z,21.95
2022-12-12T15:42:54.604Z,27.15
2022-12-12T15:44:28.701Z,38.28
2022-12-12T15:46:06.981Z,29.45
2022-12-12T15:47:40.338Z,32.65
2022-12-12T15:49:39.142Z,31.98
2022-12-12T15:51:18.325Z,21.17
2022-12-12T15:53:06.817Z,35.00
2022-12-12T15:54:47.527Z,34.92
2022-12-12T15:56:28.869Z,36.13
2022-12-12T15:58:02.713Z,35.38
2022-12-12T15:59:36.243Z,29.40
2022-12-12T16:01:20.417Z,24.40
2022-12-12T16:03:03.473Z,24.52
2022-12-12T16:04:37.122Z,38.90
2022-12-12T16:06:18.276Z,33.13
2022-12-12T16:07:51.927Z,36.13
2022-12-12T16:09:30.049Z,49.08
2022-12-12T16:11:05.933Z,51.85
2022-12-12T16:13:23.392Z,49.67
2022-12-12T16:14:57.071Z,39.17
2022-12-12T16:16:54.590Z,33.22
2022-12-12T16:18:29.184Z,33.63
2022-12-12T16:20:06.520Z,33.50
2022-12-12T16:22:03.624Z,40.40
2022-12-12T16:23:43.817Z,42.75
2022-12-12T16:25:22.014Z,34.15
2022-12-12T16:26:59.663Z,28.77
2022-12-12T16:28:34.814Z,32.63
2022-12-12T16:30:09.462Z,24.60
2022-12-12T16:31:45.348Z,25.95
2022-12-12T16:33:26.314Z,25.25
2022-12-12T16:35:00.138Z,24.23
2022-12-12T16:36:40.022Z,27.45
2022-12-12T16:38:16.991Z,40.85
2022-12-12T16:39:50.355Z,37.70
2022-12-12T16:41:23.662Z,40.60
2022-12-12T16:43:10.819Z,35.92
2022-12-12T16:44:47.850Z,39.40
2022-12-12T16:46:23.860Z,26.13
2022-12-12T16:47:59.080Z,33.53
2022-12-12T16:49:32.790Z,24.02
2022-12-12T16:51:08.687Z,24.02
2022-12-12T16:52:42.118Z,25.92
2022-12-12T16:54:18.063Z,23.17
2022-12-12T16:55:54.251Z,27.42
2022-12-12T16:57:27.434Z,28.85
2022-12-12T16:59:00.978Z,27.65
2022-12-12T17:00:35.684Z,32.97
2022-12-12T17:02:20.063Z,26.52
2022-12-12T17:03:54.140Z,38.55
2022-12-12T17:05:30.393Z,27.50
2022-12-12T17:07:08.034Z,26.27
2022-12-12T17:08:42.040Z,25.42
2022-12-12T17:10:16.993Z,23.25
2022-12-12T17:11:50.559Z,39.65
2022-12-12T17:13:25.644Z,27.42
2022-12-12T17:14:59.032Z,29.50
2022-12-12T17:16:33.890Z,25.95
2022-12-12T17:18:07.291Z,24.50
2022-12-12T17:19:40.547Z,27.42
2022-12-12T17:21:13.987Z,17.90
2022-12-12T17:22:47.711Z,28.30
2022-12-12T17:24:21.765Z,30.05
2022-12-12T17:26:02.501Z,28.65
2022-12-12T17:27:37.731Z,33.03
2022-12-12T17:29:11.647Z,37.47
2022-12-12T17:30:45.775Z,30.00
2022-12-12T17:32:24.367Z,27.65
2022-12-12T17:33:58.252Z,29.08
2022-12-12T17:35:31.671Z,28.95
2022-12-12T17:37:05.066Z,35.80
2022-12-12T17:38:39.179Z,32.38
2022-12-12T17:40:14.218Z,27.55
2022-12-12T17:41:50.168Z,42.50
2022-12-12T17:43:25.291Z,24.67
2022-12-12T17:44:58.617Z,28.52
2022-12-12T17:46:33.302Z,14.05
2022-12-12T17:48:08.451Z,20.20
2022-12-12T17:49:42.652Z,37.17
2022-12-12T17:51:18.521Z,29.52
2022-12-12T17:52:52.836Z,37.72
2022-12-12T17:54:26.879Z,42.70
2022-12-12T17:56:07.677Z,28.33
2022-12-12T17:57:41.475Z,31.55
2022-12-12T17:59:16.066Z,42.55
2022-12-12T18:00:49.764Z,28.40
2022-12-12T18:02:23.351Z,38.15
2022-12-12T18:03:59.819Z,28.73
2022-12-12T18:05:33.551Z,29.42
2022-12-12T18:07:07.492Z,42.10
2022-12-12T18:08:42.206Z,35.60
2022-12-12T18:10:15.827Z,36.20
2022-12-12T18:11:49.277Z,47.65
2022-12-12T18:13:22.536Z,43.95
2022-12-12T18:14:56.195Z,35.63
2022-12-12T18:16:32.180Z,24.55
2022-12-12T18:18:05.793Z,35.50
2022-12-12T18:19:40.523Z,26.13
2022-12-12T18:21:29.240Z,26.38
2022-12-12T18:23:09.116Z,23.08
2022-12-12T18:24:42.258Z,19.35
2022-12-12T18:26:21.746Z,21.52
2022-12-12T18:27:56.017Z,26.10
2022-12-12T18:29:29.571Z,25.20
2022-12-12T18:31:03.059Z,39.00
2022-12-12T18:32:36.886Z,23.52
2022-12-12T18:34:11.013Z,19.75
2022-12-12T18:35:46.668Z,31.40
2022-12-12T18:37:20.304Z,29.73
2022-12-12T18:38:53.956Z,29.20
2022-12-12T18:40:28.036Z,24.65
2022-12-12T18:42:01.570Z,22.70
2022-12-12T18:43:35.873Z,25.83
2022-12-12T18:45:12.069Z,15.75
2022-12-12T18:46:45.263Z,23.33
2022-12-12T18:48:18.634Z,21.83
2022-12-12T18:49:52.720Z,24.15
2022-12-12T18:51:28.931Z,17.67
2022-12-12T18:53:02.182Z,15.88
2022-12-12T18:54:35.779Z,29.95
2022-12-12T18:56:10.260Z,41.33
2022-12-12T18:57:44.919Z,54.00
2022-12-12T18:59:18.504Z,26.80
2022-12-12T19:00:51.826Z,35.88
2022-12-12T19:02:25.956Z,22.10
2022-12-12T19:04:04.538Z,18.88
2022-12-12T19:05:42.121Z,18.42
2022-12-12T19:07:18.552Z,15.68
2022-12-12T19:08:52.300Z,18.83
2022-12-12T19:10:25.809Z,18.05
2022-12-12T19:12:02.663Z,15.90
2022-12-12T19:13:36.524Z,70.45
2022-12-12T19:15:19.187Z,27.83
2022-12-12T19:16:52.786Z,19.48
2022-12-12T19:18:26.065Z,15.77
2022-12-12T19:19:59.389Z,16.25
2022-12-12T19:21:33.849Z,17.20
2022-12-12T19:23:08.498Z,14.13
2022-12-12T19:24:41.771Z,10.85
2022-12-12T19:26:16.542Z,14.48
2022-12-12T19:27:51.513Z,11.20
2022-12-12T19:29:24.840Z,14.13
2022-12-12T19:30:58.255Z,14.15
2022-12-12T19:32:31.615Z,17.42
2022-12-12T19:34:05.915Z,18.38
2022-12-12T19:35:39.351Z,17.17
2022-12-12T19:37:12.619Z,12.77
2022-12-12T19:38:48.315Z,11.18
2022-12-12T19:40:21.568Z,12.48
2022-12-12T19:41:54.916Z,14.93
2022-12-12T19:43:30.376Z,13.77
2022-12-12T19:45:04.756Z,12.23
2022-12-12T19:46:37.948Z,10.50
2022-12-12T19:48:11.493Z,15.90
2022-12-12T19:49:44.740Z,15.95
2022-12-12T19:51:20.347Z,11.45
2022-12-12T19:52:53.630Z,13.80
2022-12-12T19:54:28.491Z,15.68
2022-12-12T19:56:01.954Z,12.32
2022-12-12T19:57:35.269Z,14.57
2022-12-12T19:59:09.500Z,16.65
2022-12-12T20:00:43.966Z,15.50
2022-12-12T20:02:17.168Z,14.05
2022-12-12T20:03:51.402Z,10.48
2022-12-12T20:05:26.258Z,9.77
2022-12-12T20:07:00.373Z,12.75
2022-12-12T20:08:34.613Z,18.17
2022-12-12T20:10:10.357Z,16.48
2022-12-12T20:11:45.478Z,13.27
2022-12-12T20:13:18.845Z,19.20
2022-12-12T20:14:51.954Z,18.17
2022-12-12T20:16:27.996Z,17.60
2022-12-12T20:18:02.897Z,20.35
2022-12-12T20:19:36.449Z,22.40
2022-12-12T20:21:20.451Z,34.83
2022-12-12T20:23:03.762Z,34.42
2022-12-12T20:24:37.474Z,38.67
2022-12-12T20:26:15.586Z,28.17
2022-12-12T20:27:48.789Z,64.13
2022-12-12T20:29:24.302Z,29.67
2022-12-12T20:31:05.852Z,31.10
2022-12-12T20:32:39.092Z,24.38
2022-12-12T20:34:13.143Z,24.48
2022-12-12T20:35:46.535Z,19.52
2022-12-12T20:37:20.410Z,14.82
2022-12-12T20:38:55.697Z,20.08
2022-12-12T20:40:28.959Z,17.90
2022-12-12T20:42:03.874Z,28.83
2022-12-12T20:43:37.468Z,39.50
2022-12-12T20:45:11.575Z,23.13
2022-12-12T20:46:47.232Z,36.55
2022-12-12T20:48:21.040Z,50.42
2022-12-12T20:49:54.833Z,38.28
2022-12-12T20:51:54.882Z,24.42
2022-12-12T20:53:23.803Z,31.30
2022-12-12T20:54:57.963Z,26.27
2022-12-12T20:56:31.731Z,22.98
2022-12-12T20:58:06.626Z,25.38
2022-12-12T20:59:40.297Z,28.33
2022-12-12T21:01:16.214Z,30.55
2022-12-12T21:02:49.456Z,33.35
2022-12-12T21:04:24.177Z,28.35
2022-12-12T21:05:57.570Z,33.50
2022-12-12T21:07:33.043Z,27.20
2022-12-12T21:09:09.732Z,22.42
2022-12-12T21:10:43.103Z,24.17
2022-12-12T21:12:16.594Z,23.60
2022-12-12T21:13:51.728Z,25.67
2022-12-12T21:15:24.910Z,34.47
2022-12-12T21:16:58.175Z,38.40
2022-12-12T21:18:32.612Z,35.20
2022-12-12T21:20:07.254Z,28.42
2022-12-12T21:21:41.556Z,29.20
2022-12-12T21:23:14.723Z,24.15
2022-12-12T21:24:48.210Z,26.30
2022-12-12T21:26:28.625Z,22.13
2022-12-12T21:28:02.499Z,23.67
2022-12-12T21:29:37.290Z,20.67
2022-12-12T21:31:11.829Z,17.17
2022-12-12T21:32:45.075Z,18.80
2022-12-12T21:34:18.404Z,20.02
2022-12-12T21:35:51.636Z,19.98
2022-12-12T21:37:24.827Z,20.40
2022-12-12T21:38:59.863Z,20.85
2022-12-12T21:40:33.114Z,25.38
2022-12-12T21:42:06.339Z,20.92
2022-12-12T21:43:39.810Z,25.73
2022-12-12T21:45:16.289Z,31.88
2022-12-12T21:46:49.837Z,26.33
2022-12-12T21:48:23.088Z,30.73
2022-12-12T21:49:56.362Z,37.78
2022-12-12T21:51:29.966Z,38.05
2022-12-12T21:53:20.306Z,40.00